Terminal Aerodrome Forecast
Issued by NWS

Home | Current Version | Previous Version | Text Only | Print | Product List | Glossary On
Versions: 1 2 3 4 5 6 7 8 9 10 11 12 13 14 15 16 17 18 19 20 21 22 23 24 25 26 27 28 29 30 31 32 33 34 35 36 37
000
FTUS41 KRNK 021742
TAFBCB
TAF
KBCB 021742Z 0218/0318 28003KT P6SM -SHRA SCT030 OVC045
     FM021930 26006KT 5SM SHRA BR VCTS SCT015 OVC030CB
      TEMPO 0220/0222 2SM +SHRA BKN015
     FM022300 26005KT 4SM -SHRA BR OVC035
     FM030500 VRB03KT 3SM -SHRA BR SCT007 OVC025=

USA.gov is the U.S. government's official web portal to all federal, state and local government web resources and services.